sensor_id;sensor_type;location;lat;lon;timestamp;temperature;humidity
73955;DHT22;62306;52.516;13.290;2022-11-20T00:01:33;1.80;92.30
73955;DHT22;62306;52.516;13.290;2022-11-20T00:04:00;1.80;91.90
73955;DHT22;62306;52.516;13.290;2022-11-20T00:06:28;1.80;92.00
73955;DHT22;62306;52.516;13.290;2022-11-20T00:08:56;1.80;92.30
73955;DHT22;62306;52.516;13.290;2022-11-20T00:11:25;1.80;92.20
73955;DHT22;62306;52.516;13.290;2022-11-20T00:13:54;1.90;92.10
73955;DHT22;62306;52.516;13.290;2022-11-20T00:16:25;1.80;91.90
73955;DHT22;62306;52.516;13.290;2022-11-20T00:18:52;1.80;92.00
73955;DHT22;62306;52.516;13.290;2022-11-20T00:21:21;1.80;91.80
73955;DHT22;62306;52.516;13.290;2022-11-20T00:23:49;1.80;91.90
73955;DHT22;62306;52.516;13.290;2022-11-20T00:26:18;1.80;91.90
73955;DHT22;62306;52.516;13.290;2022-11-20T00:28:49;1.80;91.90
73955;DHT22;62306;52.516;13.290;2022-11-20T00:31:17;1.80;91.80
73955;DHT22;62306;52.516;13.290;2022-11-20T00:33:47;1.90;91.50
73955;DHT22;62306;52.516;13.290;2022-11-20T00:36:15;1.80;91.50
73955;DHT22;62306;52.516;13.290;2022-11-20T00:38:42;1.80;91.20
73955;DHT22;62306;52.516;13.290;2022-11-20T00:41:11;1.80;91.20
73955;DHT22;62306;52.516;13.290;2022-11-20T00:43:38;1.80;91.20
73955;DHT22;62306;52.516;13.290;2022-11-20T00:46:07;1.70;91.30
73955;DHT22;62306;52.516;13.290;2022-11-20T00:48:34;1.60;91.60
73955;DHT22;62306;52.516;13.290;2022-11-20T00:51:03;1.60;91.60
73955;DHT22;62306;52.516;13.290;2022-11-20T00:53:30;1.60;91.60
73955;DHT22;62306;52.516;13.290;2022-11-20T00:55:59;1.70;91.60
73955;DHT22;62306;52.516;13.290;2022-11-20T00:58:29;1.60;91.60
73955;DHT22;62306;52.516;13.290;2022-11-20T01:01:00;1.70;91.60
73955;DHT22;62306;52.516;13.290;2022-11-20T01:03:27;1.60;91.50
73955;DHT22;62306;52.516;13.290;2022-11-20T01:05:54;1.60;91.60
73955;DHT22;62306;52.516;13.290;2022-11-20T01:08:29;1.60;91.30
73955;DHT22;62306;52.516;13.290;2022-11-20T01:10:59;1.60;91.60
73955;DHT22;62306;52.516;13.290;2022-11-20T01:13:26;1.60;91.70
73955;DHT22;62306;52.516;13.290;2022-11-20T01:16:05;1.60;91.80
73955;DHT22;62306;52.516;13.290;2022-11-20T01:18:33;1.60;91.30
73955;DHT22;62306;52.516;13.290;2022-11-20T01:21:01;1.70;91.20
73955;DHT22;62306;52.516;13.290;2022-11-20T01:23:32;1.70;90.90
73955;DHT22;62306;52.516;13.290;2022-11-20T01:26:00;1.80;90.60
73955;DHT22;62306;52.516;13.290;2022-11-20T01:28:29;1.80;90.60
73955;DHT22;62306;52.516;13.290;2022-11-20T01:30:56;1.70;90.80
73955;DHT22;62306;52.516;13.290;2022-11-20T01:33:23;1.70;90.70
73955;DHT22;62306;52.516;13.290;2022-11-20T01:35:50;1.70;90.80
73955;DHT22;62306;52.516;13.290;2022-11-20T01:38:17;1.70;90.80
73955;DHT22;62306;52.516;13.290;2022-11-20T01:40:53;1.70;90.90
73955;DHT22;62306;52.516;13.290;2022-11-20T01:43:21;1.60;91.00
73955;DHT22;62306;52.516;13.290;2022-11-20T01:46:02;1.60;91.00
73955;DHT22;62306;52.516;13.290;2022-11-20T01:48:34;1.60;91.00
73955;DHT22;62306;52.516;13.290;2022-11-20T01:51:04;1.60;91.00
73955;DHT22;62306;52.516;13.290;2022-11-20T01:53:36;1.60;91.00
73955;DHT22;62306;52.516;13.290;2022-11-20T01:56:07;1.60;90.80
73955;DHT22;62306;52.516;13.290;2022-11-20T01:58:38;1.70;91.00
73955;DHT22;62306;52.516;13.290;2022-11-20T02:01:08;1.60;91.00
73955;DHT22;62306;52.516;13.290;2022-11-20T02:03:36;1.50;91.00
73955;DHT22;62306;52.516;13.290;2022-11-20T02:06:07;1.50;91.00
73955;DHT22;62306;52.516;13.290;2022-11-20T02:08:37;1.50;91.00
73955;DHT22;62306;52.516;13.290;2022-11-20T02:11:06;1.50;91.20
73955;DHT22;62306;52.516;13.290;2022-11-20T02:13:33;1.50;91.10
73955;DHT22;62306;52.516;13.290;2022-11-20T02:16:14;1.50;91.20
73955;DHT22;62306;52.516;13.290;2022-11-20T02:18:42;1.60;91.20
73955;DHT22;62306;52.516;13.290;2022-11-20T02:21:15;1.50;91.20
73955;DHT22;62306;52.516;13.290;2022-11-20T02:24:11;1.50;91.10
73955;DHT22;62306;52.516;13.290;2022-11-20T02:26:41;1.60;91.30
73955;DHT22;62306;52.516;13.290;2022-11-20T02:29:09;1.50;91.10
73955;DHT22;62306;52.516;13.290;2022-11-20T02:31:38;1.50;91.20
73955;DHT22;62306;52.516;13.290;2022-11-20T02:34:06;1.50;91.10
73955;DHT22;62306;52.516;13.290;2022-11-20T02:36:34;1.40;91.00
73955;DHT22;62306;52.516;13.290;2022-11-20T02:39:02;1.40;91.00
73955;DHT22;62306;52.516;13.290;2022-11-20T02:41:35;1.40;91.10
73955;DHT22;62306;52.516;13.290;2022-11-20T02:44:03;1.40;91.50
73955;DHT22;62306;52.516;13.290;2022-11-20T02:46:31;1.30;91.50
73955;DHT22;62306;52.516;13.290;2022-11-20T02:48:58;1.30;91.70
73955;DHT22;62306;52.516;13.290;2022-11-20T02:51:25;1.40;91.30
73955;DHT22;62306;52.516;13.290;2022-11-20T02:53:52;1.30;91.10
73955;DHT22;62306;52.516;13.290;2022-11-20T02:56:19;1.30;91.10
73955;DHT22;62306;52.516;13.290;2022-11-20T02:58:49;1.30;91.50
73955;DHT22;62306;52.516;13.290;2022-11-20T03:01:16;1.30;91.70
73955;DHT22;62306;52.516;13.290;2022-11-20T03:03:43;1.30;91.80
73955;DHT22;62306;52.516;13.290;2022-11-20T03:06:10;1.30;91.60
73955;DHT22;62306;52.516;13.290;2022-11-20T03:08:36;1.40;91.50
73955;DHT22;62306;52.516;13.290;2022-11-20T03:11:05;1.40;91.20
73955;DHT22;62306;52.516;13.290;2022-11-20T03:13:32;1.40;91.00
73955;DHT22;62306;52.516;13.290;2022-11-20T03:16:07;1.40;90.80
73955;DHT22;62306;52.516;13.290;2022-11-20T03:18:34;1.40;91.10
73955;DHT22;62306;52.516;13.290;2022-11-20T03:21:01;1.40;91.20
73955;DHT22;62306;52.516;13.290;2022-11-20T03:23:29;1.40;90.90
73955;DHT22;62306;52.516;13.290;2022-11-20T03:26:06;1.40;90.80
73955;DHT22;62306;52.516;13.290;2022-11-20T03:28:33;1.40;90.70
73955;DHT22;62306;52.516;13.290;2022-11-20T03:31:06;1.40;90.80
73955;DHT22;62306;52.516;13.290;2022-11-20T03:33:33;1.40;90.80
73955;DHT22;62306;52.516;13.290;2022-11-20T03:36:01;1.40;90.80
73955;DHT22;62306;52.516;13.290;2022-11-20T03:38:29;1.40;90.80
73955;DHT22;62306;52.516;13.290;2022-11-20T03:40:58;1.40;90.80
73955;DHT22;62306;52.516;13.290;2022-11-20T03:43:26;1.40;90.60
73955;DHT22;62306;52.516;13.290;2022-11-20T03:45:53;1.40;90.60
73955;DHT22;62306;52.516;13.290;2022-11-20T03:48:21;1.40;90.60
73955;DHT22;62306;52.516;13.290;2022-11-20T03:50:48;1.40;91.80
73955;DHT22;62306;52.516;13.290;2022-11-20T03:53:15;1.40;91.40
73955;DHT22;62306;52.516;13.290;2022-11-20T03:55:42;1.50;90.60
73955;DHT22;62306;52.516;13.290;2022-11-20T03:58:09;1.40;90.80
73955;DHT22;62306;52.516;13.290;2022-11-20T04:00:36;1.30;91.00
73955;DHT22;62306;52.516;13.290;2022-11-20T04:03:03;1.30;91.40
73955;DHT22;62306;52.516;13.290;2022-11-20T04:05:33;1.20;91.70
73955;DHT22;62306;52.516;13.290;2022-11-20T04:08:00;1.10;91.70
73955;DHT22;62306;52.516;13.290;2022-11-20T04:10:27;1.10;91.50
73955;DHT22;62306;52.516;13.290;2022-11-20T04:12:53;1.10;91.40
73955;DHT22;62306;52.516;13.290;2022-11-20T04:15:20;1.10;91.20
73955;DHT22;62306;52.516;13.290;2022-11-20T04:17:47;1.10;91.40
73955;DHT22;62306;52.516;13.290;2022-11-20T04:20:14;1.10;91.30
73955;DHT22;62306;52.516;13.290;2022-11-20T04:22:42;1.10;91.40
73955;DHT22;62306;52.516;13.290;2022-11-20T04:25:09;1.10;91.40
73955;DHT22;62306;52.516;13.290;2022-11-20T04:27:36;1.10;91.40
73955;DHT22;62306;52.516;13.290;2022-11-20T04:30:04;1.10;91.40
73955;DHT22;62306;52.516;13.290;2022-11-20T04:32:31;1.10;91.40
73955;DHT22;62306;52.516;13.290;2022-11-20T04:34:58;1.20;91.40
73955;DHT22;62306;52.516;13.290;2022-11-20T04:37:24;1.30;91.10
73955;DHT22;62306;52.516;13.290;2022-11-20T04:39:53;1.30;90.90
73955;DHT22;62306;52.516;13.290;2022-11-20T04:42:20;1.30;90.90
73955;DHT22;62306;52.516;13.290;2022-11-20T04:44:56;1.20;91.10
73955;DHT22;62306;52.516;13.290;2022-11-20T04:47:23;1.20;91.30
73955;DHT22;62306;52.516;13.290;2022-11-20T04:49:50;1.30;91.30
73955;DHT22;62306;52.516;13.290;2022-11-20T04:52:17;1.30;91.20
73955;DHT22;62306;52.516;13.290;2022-11-20T04:54:44;1.30;91.20
73955;DHT22;62306;52.516;13.290;2022-11-20T04:57:14;1.30;91.20
73955;DHT22;62306;52.516;13.290;2022-11-20T04:59:41;1.40;91.30
73955;DHT22;62306;52.516;13.290;2022-11-20T05:02:09;1.40;91.20
73955;DHT22;62306;52.516;13.290;2022-11-20T05:04:36;1.40;91.10
73955;DHT22;62306;52.516;13.290;2022-11-20T05:07:03;1.50;91.20
73955;DHT22;62306;52.516;13.290;2022-11-20T05:09:30;1.50;91.00
73955;DHT22;62306;52.516;13.290;2022-11-20T05:11:57;1.50;91.00
73955;DHT22;62306;52.516;13.290;2022-11-20T05:14:25;1.50;91.00
73955;DHT22;62306;52.516;13.290;2022-11-20T05:16:52;1.50;91.10
73955;DHT22;62306;52.516;13.290;2022-11-20T05:19:19;1.40;91.00
73955;DHT22;62306;52.516;13.290;2022-11-20T05:21:46;1.40;91.30
73955;DHT22;62306;52.516;13.290;2022-11-20T05:24:13;1.40;91.50
73955;DHT22;62306;52.516;13.290;2022-11-20T05:26:40;1.40;91.40
73955;DHT22;62306;52.516;13.290;2022-11-20T05:29:09;1.40;91.40
73955;DHT22;62306;52.516;13.290;2022-11-20T05:31:39;1.40;91.70
73955;DHT22;62306;52.516;13.290;2022-11-20T05:34:06;1.50;91.40
73955;DHT22;62306;52.516;13.290;2022-11-20T05:36:33;1.40;91.30
73955;DHT22;62306;52.516;13.290;2022-11-20T05:39:00;1.50;91.30
73955;DHT22;62306;52.516;13.290;2022-11-20T05:41:27;1.50;91.30
73955;DHT22;62306;52.516;13.290;2022-11-20T05:43:56;1.50;91.30
73955;DHT22;62306;52.516;13.290;2022-11-20T05:46:23;1.50;91.20
73955;DHT22;62306;52.516;13.290;2022-11-20T05:48:52;1.50;91.30
73955;DHT22;62306;52.516;13.290;2022-11-20T05:51:19;1.50;91.30
73955;DHT22;62306;52.516;13.290;2022-11-20T05:53:46;1.50;91.40
73955;DHT22;62306;52.516;13.290;2022-11-20T05:56:15;1.50;91.40
73955;DHT22;62306;52.516;13.290;2022-11-20T05:58:42;1.50;91.30
73955;DHT22;62306;52.516;13.290;2022-11-20T06:01:13;1.50;91.40
73955;DHT22;62306;52.516;13.290;2022-11-20T06:03:41;1.50;91.30
73955;DHT22;62306;52.516;13.290;2022-11-20T06:06:13;1.50;91.20
73955;DHT22;62306;52.516;13.290;2022-11-20T06:08:40;1.60;91.10
73955;DHT22;62306;52.516;13.290;2022-11-20T06:11:08;1.50;91.20
73955;DHT22;62306;52.516;13.290;2022-11-20T06:13:35;1.50;91.30
73955;DHT22;62306;52.516;13.290;2022-11-20T06:16:03;1.60;91.30
73955;DHT22;62306;52.516;13.290;2022-11-20T06:18:30;1.60;91.30
73955;DHT22;62306;52.516;13.290;2022-11-20T06:21:02;1.60;91.30
73955;DHT22;62306;52.516;13.290;2022-11-20T06:23:32;1.50;91.20
73955;DHT22;62306;52.516;13.290;2022-11-20T06:26:02;1.50;91.30
73955;DHT22;62306;52.516;13.290;2022-11-20T06:28:29;1.60;91.30
73955;DHT22;62306;52.516;13.290;2022-11-20T06:30:56;1.60;91.50
73955;DHT22;62306;52.516;13.290;2022-11-20T06:33:23;1.60;91.70
73955;DHT22;62306;52.516;13.290;2022-11-20T06:35:50;1.60;91.60
73955;DHT22;62306;52.516;13.290;2022-11-20T06:38:17;1.60;91.80
73955;DHT22;62306;52.516;13.290;2022-11-20T06:40:45;1.60;91.70
73955;DHT22;62306;52.516;13.290;2022-11-20T06:43:12;1.60;91.40
73955;DHT22;62306;52.516;13.290;2022-11-20T06:45:39;1.60;91.50
73955;DHT22;62306;52.516;13.290;2022-11-20T06:48:06;1.60;91.50
73955;DHT22;62306;52.516;13.290;2022-11-20T06:50:32;1.60;91.40
73955;DHT22;62306;52.516;13.290;2022-11-20T06:53:01;1.50;91.50
73955;DHT22;62306;52.516;13.290;2022-11-20T06:55:29;1.50;91.70
73955;DHT22;62306;52.516;13.290;2022-11-20T06:57:57;1.50;91.60
73955;DHT22;62306;52.516;13.290;2022-11-20T07:00:25;1.50;91.80
73955;DHT22;62306;52.516;13.290;2022-11-20T07:02:52;1.50;91.70
73955;DHT22;62306;52.516;13.290;2022-11-20T07:05:18;1.50;91.40
73955;DHT22;62306;52.516;13.290;2022-11-20T07:07:45;1.40;91.50
73955;DHT22;62306;52.516;13.290;2022-11-20T07:10:12;1.40;91.50
73955;DHT22;62306;52.516;13.290;2022-11-20T07:12:39;1.40;91.60
73955;DHT22;62306;52.516;13.290;2022-11-20T07:15:08;1.40;91.50
73955;DHT22;62306;52.516;13.290;2022-11-20T07:17:35;1.50;91.40
73955;DHT22;62306;52.516;13.290;2022-11-20T07:20:03;1.40;91.40
73955;DHT22;62306;52.516;13.290;2022-11-20T07:22:29;1.50;91.30
73955;DHT22;62306;52.516;13.290;2022-11-20T07:24:56;1.50;91.20
73955;DHT22;62306;52.516;13.290;2022-11-20T07:27:23;1.50;91.40
73955;DHT22;62306;52.516;13.290;2022-11-20T07:29:50;1.50;91.20
73955;DHT22;62306;52.516;13.290;2022-11-20T07:32:18;1.60;91.00
73955;DHT22;62306;52.516;13.290;2022-11-20T07:34:45;1.50;91.00
73955;DHT22;62306;52.516;13.290;2022-11-20T07:37:12;1.60;90.70
73955;DHT22;62306;52.516;13.290;2022-11-20T07:39:39;1.60;90.80
73955;DHT22;62306;52.516;13.290;2022-11-20T07:42:06;1.60;90.80
73955;DHT22;62306;52.516;13.290;2022-11-20T07:44:33;1.60;90.80
73955;DHT22;62306;52.516;13.290;2022-11-20T07:47:00;1.60;90.60
73955;DHT22;62306;52.516;13.290;2022-11-20T07:49:28;1.70;90.60
73955;DHT22;62306;52.516;13.290;2022-11-20T07:51:55;1.70;90.50
73955;DHT22;62306;52.516;13.290;2022-11-20T07:54:22;1.70;90.50
73955;DHT22;62306;52.516;13.290;2022-11-20T07:56:50;1.60;90.60
73955;DHT22;62306;52.516;13.290;2022-11-20T07:59:17;1.60;90.60
73955;DHT22;62306;52.516;13.290;2022-11-20T08:01:43;1.70;90.40
73955;DHT22;62306;52.516;13.290;2022-11-20T08:04:10;1.70;90.10
73955;DHT22;62306;52.516;13.290;2022-11-20T08:06:39;1.70;90.20
73955;DHT22;62306;52.516;13.290;2022-11-20T08:09:06;1.80;90.20
73955;DHT22;62306;52.516;13.290;2022-11-20T08:11:32;1.80;89.90
73955;DHT22;62306;52.516;13.290;2022-11-20T08:14:17;1.90;89.80
73955;DHT22;62306;52.516;13.290;2022-11-20T08:16:45;1.90;89.10
73955;DHT22;62306;52.516;13.290;2022-11-20T08:19:12;1.90;88.80
73955;DHT22;62306;52.516;13.290;2022-11-20T08:21:41;1.90;88.60
73955;DHT22;62306;52.516;13.290;2022-11-20T08:24:09;2.00;88.50
73955;DHT22;62306;52.516;13.290;2022-11-20T08:26:37;2.00;88.40
73955;DHT22;62306;52.516;13.290;2022-11-20T08:29:04;2.00;88.20
73955;DHT22;62306;52.516;13.290;2022-11-20T08:31:31;2.00;88.40
73955;DHT22;62306;52.516;13.290;2022-11-20T08:33:58;2.00;87.90
73955;DHT22;62306;52.516;13.290;2022-11-20T08:36:25;2.00;89.40
73955;DHT22;62306;52.516;13.290;2022-11-20T08:38:55;2.00;88.90
73955;DHT22;62306;52.516;13.290;2022-11-20T08:41:22;2.00;88.80
73955;DHT22;62306;52.516;13.290;2022-11-20T08:43:55;2.00;88.10
73955;DHT22;62306;52.516;13.290;2022-11-20T08:46:23;2.00;88.30
73955;DHT22;62306;52.516;13.290;2022-11-20T08:48:50;2.00;88.00
73955;DHT22;62306;52.516;13.290;2022-11-20T08:51:17;2.00;88.00
73955;DHT22;62306;52.516;13.290;2022-11-20T08:53:44;2.00;87.60
73955;DHT22;62306;52.516;13.290;2022-11-20T08:56:12;2.00;87.70
73955;DHT22;62306;52.516;13.290;2022-11-20T08:58:39;2.10;87.50
73955;DHT22;62306;52.516;13.290;2022-11-20T09:01:06;2.10;87.10
73955;DHT22;62306;52.516;13.290;2022-11-20T09:03:33;2.10;87.30
73955;DHT22;62306;52.516;13.290;2022-11-20T09:06:01;2.20;87.00
73955;DHT22;62306;52.516;13.290;2022-11-20T09:08:29;2.20;86.50
73955;DHT22;62306;52.516;13.290;2022-11-20T09:10:56;2.30;86.60
73955;DHT22;62306;52.516;13.290;2022-11-20T09:13:26;2.30;86.90
73955;DHT22;62306;52.516;13.290;2022-11-20T09:15:54;2.30;86.90
73955;DHT22;62306;52.516;13.290;2022-11-20T09:18:21;2.30;86.60
73955;DHT22;62306;52.516;13.290;2022-11-20T09:20:48;2.30;86.70
73955;DHT22;62306;52.516;13.290;2022-11-20T09:23:16;2.30;86.60
73955;DHT22;62306;52.516;13.290;2022-11-20T09:25:43;2.30;86.70
73955;DHT22;62306;52.516;13.290;2022-11-20T09:28:10;2.30;86.60
73955;DHT22;62306;52.516;13.290;2022-11-20T09:30:38;2.30;86.30
73955;DHT22;62306;52.516;13.290;2022-11-20T09:33:05;2.40;86.00
73955;DHT22;62306;52.516;13.290;2022-11-20T09:35:34;2.40;86.60
73955;DHT22;62306;52.516;13.290;2022-11-20T09:38:05;2.40;86.20
73955;DHT22;62306;52.516;13.290;2022-11-20T09:40:35;2.40;85.30
73955;DHT22;62306;52.516;13.290;2022-11-20T09:43:09;2.40;86.10
73955;DHT22;62306;52.516;13.290;2022-11-20T09:45:52;2.50;86.10
73955;DHT22;62306;52.516;13.290;2022-11-20T09:48:36;2.60;85.90
73955;DHT22;62306;52.516;13.290;2022-11-20T09:51:12;2.60;85.30
73955;DHT22;62306;52.516;13.290;2022-11-20T09:53:54;2.70;85.10
73955;DHT22;62306;52.516;13.290;2022-11-20T09:56:25;2.70;84.50
73955;DHT22;62306;52.516;13.290;2022-11-20T09:58:54;2.80;84.70
73955;DHT22;62306;52.516;13.290;2022-11-20T10:01:26;2.90;83.90
73955;DHT22;62306;52.516;13.290;2022-11-20T10:03:58;3.00;84.00
73955;DHT22;62306;52.516;13.290;2022-11-20T10:06:30;3.00;83.60
73955;DHT22;62306;52.516;13.290;2022-11-20T10:09:05;2.90;83.10
73955;DHT22;62306;52.516;13.290;2022-11-20T10:11:41;2.80;83.70
73955;DHT22;62306;52.516;13.290;2022-11-20T10:14:20;2.80;83.80
73955;DHT22;62306;52.516;13.290;2022-11-20T10:16:58;2.80;84.40
73955;DHT22;62306;52.516;13.290;2022-11-20T10:19:37;2.80;84.20
73955;DHT22;62306;52.516;13.290;2022-11-20T10:22:15;2.90;84.70
73955;DHT22;62306;52.516;13.290;2022-11-20T10:24:55;3.00;84.50
73955;DHT22;62306;52.516;13.290;2022-11-20T10:27:54;3.00;84.00
73955;DHT22;62306;52.516;13.290;2022-11-20T10:30:23;3.10;83.30
73955;DHT22;62306;52.516;13.290;2022-11-20T10:32:55;3.10;83.30
73955;DHT22;62306;52.516;13.290;2022-11-20T10:35:31;3.20;83.60
73955;DHT22;62306;52.516;13.290;2022-11-20T10:38:03;3.20;83.60
73955;DHT22;62306;52.516;13.290;2022-11-20T10:40:35;3.30;82.80
73955;DHT22;62306;52.516;13.290;2022-11-20T10:43:10;3.30;82.50
73955;DHT22;62306;52.516;13.290;2022-11-20T10:45:50;3.30;82.70
73955;DHT22;62306;52.516;13.290;2022-11-20T10:48:22;3.40;82.60
73955;DHT22;62306;52.516;13.290;2022-11-20T10:51:27;3.50;82.00
73955;DHT22;62306;52.516;13.290;2022-11-20T10:54:01;3.40;81.60
73955;DHT22;62306;52.516;13.290;2022-11-20T10:56:35;3.50;82.10
73955;DHT22;62306;52.516;13.290;2022-11-20T10:59:22;3.40;81.70
73955;DHT22;62306;52.516;13.290;2022-11-20T11:01:54;3.40;82.30
73955;DHT22;62306;52.516;13.290;2022-11-20T11:04:33;3.50;82.30
73955;DHT22;62306;52.516;13.290;2022-11-20T11:07:08;3.60;81.90
73955;DHT22;62306;52.516;13.290;2022-11-20T11:09:39;3.80;80.70
73955;DHT22;62306;52.516;13.290;2022-11-20T11:12:08;3.90;80.10
73955;DHT22;62306;52.516;13.290;2022-11-20T11:14:43;3.90;79.70
73955;DHT22;62306;52.516;13.290;2022-11-20T11:17:21;3.90;79.70
73955;DHT22;62306;52.516;13.290;2022-11-20T11:19:58;3.80;80.10
73955;DHT22;62306;52.516;13.290;2022-11-20T11:22:28;3.90;79.70
73955;DHT22;62306;52.516;13.290;2022-11-20T11:24:55;4.00;79.30
73955;DHT22;62306;52.516;13.290;2022-11-20T11:27:22;4.10;79.70
73955;DHT22;62306;52.516;13.290;2022-11-20T11:29:48;4.10;78.80
73955;DHT22;62306;52.516;13.290;2022-11-20T11:32:18;4.10;78.20
73955;DHT22;62306;52.516;13.290;2022-11-20T11:35:00;4.00;78.80
73955;DHT22;62306;52.516;13.290;2022-11-20T11:37:33;4.00;78.00
73955;DHT22;62306;52.516;13.290;2022-11-20T11:40:01;3.90;78.00
73955;DHT22;62306;52.516;13.290;2022-11-20T11:42:29;3.80;78.40
73955;DHT22;62306;52.516;13.290;2022-11-20T11:44:58;3.60;79.10
73955;DHT22;62306;52.516;13.290;2022-11-20T11:47:32;3.60;79.80
73955;DHT22;62306;52.516;13.290;2022-11-20T11:50:14;3.40;80.80
73955;DHT22;62306;52.516;13.290;2022-11-20T11:52:45;3.40;81.40
73955;DHT22;62306;52.516;13.290;2022-11-20T11:55:17;3.30;82.40
73955;DHT22;62306;52.516;13.290;2022-11-20T11:57:48;3.30;82.70
73955;DHT22;62306;52.516;13.290;2022-11-20T12:00:18;3.20;84.10
73955;DHT22;62306;52.516;13.290;2022-11-20T12:02:54;3.20;83.50
73955;DHT22;62306;52.516;13.290;2022-11-20T12:05:28;3.30;83.40
73955;DHT22;62306;52.516;13.290;2022-11-20T12:07:59;3.30;82.90
73955;DHT22;62306;52.516;13.290;2022-11-20T12:10:34;3.30;82.30
73955;DHT22;62306;52.516;13.290;2022-11-20T12:13:12;3.30;82.40
73955;DHT22;62306;52.516;13.290;2022-11-20T12:15:44;3.30;82.60
73955;DHT22;62306;52.516;13.290;2022-11-20T12:18:15;3.30;82.00
73955;DHT22;62306;52.516;13.290;2022-11-20T12:20:48;3.40;82.20
73955;DHT22;62306;52.516;13.290;2022-11-20T12:23:22;3.40;82.70
73955;DHT22;62306;52.516;13.290;2022-11-20T12:25:54;3.40;81.60
73955;DHT22;62306;52.516;13.290;2022-11-20T12:28:31;3.40;81.00
73955;DHT22;62306;52.516;13.290;2022-11-20T12:31:19;3.40;81.20
73955;DHT22;62306;52.516;13.290;2022-11-20T12:33:59;3.40;81.20
73955;DHT22;62306;52.516;13.290;2022-11-20T12:36:37;3.40;81.60
73955;DHT22;62306;52.516;13.290;2022-11-20T12:39:32;3.30;81.60
73955;DHT22;62306;52.516;13.290;2022-11-20T12:42:16;3.30;81.50
73955;DHT22;62306;52.516;13.290;2022-11-20T12:45:20;3.10;82.50
73955;DHT22;62306;52.516;13.290;2022-11-20T12:48:14;3.10;82.50
73955;DHT22;62306;52.516;13.290;2022-11-20T12:50:50;3.10;82.80
73955;DHT22;62306;52.516;13.290;2022-11-20T12:53:27;3.10;83.40
73955;DHT22;62306;52.516;13.290;2022-11-20T12:56:04;3.20;82.80
73955;DHT22;62306;52.516;13.290;2022-11-20T12:58:38;3.20;82.70
73955;DHT22;62306;52.516;13.290;2022-11-20T13:01:16;3.30;82.40
73955;DHT22;62306;52.516;13.290;2022-11-20T13:04:07;3.40;82.60
73955;DHT22;62306;52.516;13.290;2022-11-20T13:06:35;3.20;82.80
73955;DHT22;62306;52.516;13.290;2022-11-20T13:09:09;3.20;83.00
73955;DHT22;62306;52.516;13.290;2022-11-20T13:11:44;3.20;83.10
73955;DHT22;62306;52.516;13.290;2022-11-20T13:14:26;3.20;82.90
73955;DHT22;62306;52.516;13.290;2022-11-20T13:17:01;3.20;82.80
73955;DHT22;62306;52.516;13.290;2022-11-20T13:19:31;3.20;82.90
73955;DHT22;62306;52.516;13.290;2022-11-20T13:21:58;3.20;83.00
73955;DHT22;62306;52.516;13.290;2022-11-20T13:24:28;3.20;82.90
73955;DHT22;62306;52.516;13.290;2022-11-20T13:27:04;3.30;83.30
73955;DHT22;62306;52.516;13.290;2022-11-20T13:29:32;3.30;82.30
73955;DHT22;62306;52.516;13.290;2022-11-20T13:32:04;3.30;81.50
73955;DHT22;62306;52.516;13.290;2022-11-20T13:34:32;3.20;82.70
73955;DHT22;62306;52.516;13.290;2022-11-20T13:37:00;3.10;83.10
73955;DHT22;62306;52.516;13.290;2022-11-20T13:39:31;3.20;83.10
73955;DHT22;62306;52.516;13.290;2022-11-20T13:42:00;3.20;83.30
73955;DHT22;62306;52.516;13.290;2022-11-20T13:44:31;3.10;83.90
73955;DHT22;62306;52.516;13.290;2022-11-20T13:47:00;3.20;83.30
73955;DHT22;62306;52.516;13.290;2022-11-20T13:49:30;3.10;83.60
73955;DHT22;62306;52.516;13.290;2022-11-20T13:52:15;3.00;85.10
73955;DHT22;62306;52.516;13.290;2022-11-20T13:55:04;3.10;84.60
73955;DHT22;62306;52.516;13.290;2022-11-20T13:57:55;3.10;84.30
73955;DHT22;62306;52.516;13.290;2022-11-20T14:00:25;3.20;84.00
73955;DHT22;62306;52.516;13.290;2022-11-20T14:03:01;3.10;84.20
73955;DHT22;62306;52.516;13.290;2022-11-20T14:05:31;3.00;84.90
73955;DHT22;62306;52.516;13.290;2022-11-20T14:08:03;3.00;84.90
73955;DHT22;62306;52.516;13.290;2022-11-20T14:10:31;3.00;84.90
73955;DHT22;62306;52.516;13.290;2022-11-20T14:13:09;3.00;84.70
73955;DHT22;62306;52.516;13.290;2022-11-20T14:15:36;3.00;85.00
73955;DHT22;62306;52.516;13.290;2022-11-20T14:18:13;3.00;85.10
73955;DHT22;62306;52.516;13.290;2022-11-20T14:20:41;3.10;84.50
73955;DHT22;62306;52.516;13.290;2022-11-20T14:23:10;3.10;84.30
73955;DHT22;62306;52.516;13.290;2022-11-20T14:25:42;3.00;84.60
73955;DHT22;62306;52.516;13.290;2022-11-20T14:28:11;2.90;85.00
73955;DHT22;62306;52.516;13.290;2022-11-20T14:30:47;2.80;85.60
73955;DHT22;62306;52.516;13.290;2022-11-20T14:33:15;2.80;85.10
73955;DHT22;62306;52.516;13.290;2022-11-20T14:35:45;2.70;85.80
73955;DHT22;62306;52.516;13.290;2022-11-20T14:38:14;2.70;85.40
73955;DHT22;62306;52.516;13.290;2022-11-20T14:40:43;2.70;85.30
73955;DHT22;62306;52.516;13.290;2022-11-20T14:43:19;2.60;84.90
73955;DHT22;62306;52.516;13.290;2022-11-20T14:45:52;2.60;85.50
73955;DHT22;62306;52.516;13.290;2022-11-20T14:48:24;2.60;85.50
73955;DHT22;62306;52.516;13.290;2022-11-20T14:50:52;2.50;85.50
73955;DHT22;62306;52.516;13.290;2022-11-20T14:53:22;2.50;85.20
73955;DHT22;62306;52.516;13.290;2022-11-20T14:55:57;2.50;85.70
73955;DHT22;62306;52.516;13.290;2022-11-20T14:58:26;2.50;86.20
73955;DHT22;62306;52.516;13.290;2022-11-20T15:00:54;2.50;86.90
73955;DHT22;62306;52.516;13.290;2022-11-20T15:03:22;2.50;86.50
73955;DHT22;62306;52.516;13.290;2022-11-20T15:05:50;2.40;86.60
73955;DHT22;62306;52.516;13.290;2022-11-20T15:08:18;2.50;87.10
73955;DHT22;62306;52.516;13.290;2022-11-20T15:10:50;2.50;87.10
73955;DHT22;62306;52.516;13.290;2022-11-20T15:13:25;2.50;86.60
73955;DHT22;62306;52.516;13.290;2022-11-20T15:15:54;2.50;87.20
73955;DHT22;62306;52.516;13.290;2022-11-20T15:18:22;2.50;86.60
73955;DHT22;62306;52.516;13.290;2022-11-20T15:20:50;2.50;86.30
73955;DHT22;62306;52.516;13.290;2022-11-20T15:23:18;2.50;86.00
73955;DHT22;62306;52.516;13.290;2022-11-20T15:25:46;2.50;86.10
73955;DHT22;62306;52.516;13.290;2022-11-20T15:28:17;2.50;86.10
73955;DHT22;62306;52.516;13.290;2022-11-20T15:30:47;2.50;86.10
73955;DHT22;62306;52.516;13.290;2022-11-20T15:33:14;2.40;87.00
73955;DHT22;62306;52.516;13.290;2022-11-20T15:35:42;2.40;86.90
73955;DHT22;62306;52.516;13.290;2022-11-20T15:38:09;2.40;87.10
73955;DHT22;62306;52.516;13.290;2022-11-20T15:40:36;2.40;86.40
73955;DHT22;62306;52.516;13.290;2022-11-20T15:43:03;2.40;86.60
73955;DHT22;62306;52.516;13.290;2022-11-20T15:45:36;2.40;87.10
73955;DHT22;62306;52.516;13.290;2022-11-20T15:48:09;2.40;86.70
73955;DHT22;62306;52.516;13.290;2022-11-20T15:50:39;2.40;87.10